createdAt,value
2023-07-30T00:02:11.579Z,74.50
2023-07-30T00:05:13.872Z,74.60
2023-07-30T00:08:16.224Z,74.70
2023-07-30T00:11:18.738Z,74.70
2023-07-30T00:14:21.032Z,74.80
2023-07-30T00:17:23.405Z,75.10
2023-07-30T00:20:27.550Z,75.10
2023-07-30T00:23:30.258Z,75.50
2023-07-30T00:26:32.685Z,75.40
2023-07-30T00:29:34.974Z,75.60
2023-07-30T00:32:37.502Z,75.80
2023-07-30T00:35:39.893Z,75.80
2023-07-30T00:38:42.187Z,75.90
2023-07-30T00:41:47.134Z,76.10
2023-07-30T00:44:49.609Z,76.00
2023-07-30T00:47:52.169Z,76.30
2023-07-30T00:50:55.276Z,76.90
2023-07-30T00:53:58.199Z,76.20
2023-07-30T00:57:01.523Z,76.70
2023-07-30T01:00:06.698Z,76.40
2023-07-30T01:03:09.082Z,76.50
2023-07-30T01:06:11.630Z,76.40
2023-07-30T01:09:14.220Z,76.50
2023-07-30T01:12:16.895Z,76.50
2023-07-30T01:15:19.568Z,76.60
2023-07-30T01:18:22.005Z,76.60
2023-07-30T01:21:24.686Z,76.60
2023-07-30T01:24:27.352Z,76.70
2023-07-30T01:27:38.754Z,76.70
2023-07-30T01:30:43.691Z,76.70
2023-07-30T01:33:50.043Z,76.70
2023-07-30T01:36:57.154Z,76.90
2023-07-30T01:40:01.142Z,77.00
2023-07-30T01:43:03.747Z,77.00
2023-07-30T01:46:06.296Z,77.00
2023-07-30T01:49:08.904Z,76.90
2023-07-30T01:52:11.222Z,77.60
2023-07-30T01:55:13.625Z,76.90
2023-07-30T01:58:16.260Z,76.90
2023-07-30T02:01:18.653Z,77.00
2023-07-30T02:04:21.122Z,77.10
2023-07-30T02:07:23.517Z,77.00
2023-07-30T02:10:29.103Z,77.00
2023-07-30T02:13:31.417Z,77.10
2023-07-30T02:16:33.970Z,77.20
2023-07-30T02:19:36.323Z,77.10
2023-07-30T02:22:38.692Z,77.30
2023-07-30T02:25:41.103Z,77.30
2023-07-30T02:28:43.535Z,77.30
2023-07-30T02:31:45.968Z,77.30
2023-07-30T02:34:48.508Z,77.40
2023-07-30T02:37:50.967Z,77.50
2023-07-30T02:40:53.253Z,77.50
2023-07-30T02:43:55.637Z,77.50
2023-07-30T02:46:57.938Z,77.40
2023-07-30T02:50:00.318Z,77.40
2023-07-30T02:53:02.649Z,77.50
2023-07-30T02:56:05.242Z,77.50
2023-07-30T02:59:07.543Z,77.50
2023-07-30T03:02:10.380Z,77.60
2023-07-30T03:05:13.005Z,77.50
2023-07-30T03:08:15.324Z,77.50
2023-07-30T03:11:17.641Z,77.50
2023-07-30T03:14:22.896Z,77.50
2023-07-30T03:17:25.294Z,77.60
2023-07-30T03:20:27.642Z,77.50
2023-07-30T03:23:30.810Z,77.70
2023-07-30T03:26:33.141Z,77.60
2023-07-30T03:29:35.585Z,77.50
2023-07-30T03:32:37.917Z,77.50
2023-07-30T03:35:41.953Z,77.70
2023-07-30T03:38:44.740Z,77.70
2023-07-30T03:41:47.087Z,77.70
2023-07-30T03:44:49.402Z,77.70
2023-07-30T03:47:51.853Z,77.70
2023-07-30T03:50:55.780Z,77.50
2023-07-30T03:53:58.092Z,77.50
2023-07-30T03:57:00.492Z,77.50
2023-07-30T04:00:04.455Z,77.50
2023-07-30T04:03:16.704Z,77.50
2023-07-30T04:06:19.144Z,77.50
2023-07-30T04:09:21.479Z,77.60
2023-07-30T04:12:24.282Z,77.60
2023-07-30T04:15:26.759Z,77.50
2023-07-30T04:18:29.177Z,77.50
2023-07-30T04:21:31.629Z,77.50
2023-07-30T04:24:33.915Z,77.50
2023-07-30T04:27:36.360Z,77.50
2023-07-30T04:30:38.886Z,77.50
2023-07-30T04:33:42.431Z,77.60
2023-07-30T04:36:44.871Z,77.50
2023-07-30T04:39:48.041Z,77.50
2023-07-30T04:42:53.674Z,77.50
2023-07-30T04:45:56.279Z,77.40
2023-07-30T04:48:59.036Z,77.50
2023-07-30T04:52:02.342Z,77.50
2023-07-30T04:55:04.973Z,77.50
2023-07-30T04:58:07.488Z,77.40
2023-07-30T05:01:10.090Z,77.40
2023-07-30T05:04:12.474Z,77.40
2023-07-30T05:07:14.819Z,77.50
2023-07-30T05:10:17.680Z,77.50
2023-07-30T05:13:20.021Z,77.50
2023-07-30T05:16:22.366Z,77.50
2023-07-30T05:19:24.844Z,77.50
2023-07-30T05:22:27.186Z,77.50
2023-07-30T05:25:29.817Z,77.60
2023-07-30T05:28:32.322Z,77.40
2023-07-30T05:31:35.671Z,77.50
2023-07-30T05:34:37.994Z,77.60
2023-07-30T05:37:40.441Z,77.50
2023-07-30T05:40:43.517Z,77.50
2023-07-30T05:43:45.779Z,77.70
2023-07-30T05:46:48.060Z,77.50
2023-07-30T05:49:50.387Z,77.50
2023-07-30T05:52:52.710Z,77.50
2023-07-30T05:55:55.030Z,77.50
2023-07-30T05:58:57.400Z,77.50
2023-07-30T06:02:04.113Z,77.50
2023-07-30T06:05:06.608Z,77.50
2023-07-30T06:08:09.730Z,77.50
2023-07-30T06:11:12.112Z,77.50
2023-07-30T06:14:14.483Z,77.50
2023-07-30T06:17:17.069Z,77.50
2023-07-30T06:20:19.490Z,77.60
2023-07-30T06:23:22.506Z,77.60
2023-07-30T06:26:24.860Z,77.60
2023-07-30T06:29:27.229Z,77.60
2023-07-30T06:32:29.710Z,77.70
2023-07-30T06:35:32.081Z,77.60
2023-07-30T06:38:36.698Z,77.60
2023-07-30T06:41:40.774Z,77.70
2023-07-30T06:44:43.699Z,77.70
2023-07-30T06:47:46.053Z,77.70
2023-07-30T06:50:48.383Z,77.70
2023-07-30T06:53:50.664Z,77.70
2023-07-30T06:56:52.918Z,77.80
2023-07-30T06:59:55.157Z,78.40
2023-07-30T07:02:57.529Z,77.70
2023-07-30T07:06:00.047Z,77.70
2023-07-30T07:09:02.448Z,77.80
2023-07-30T07:12:05.187Z,77.90
2023-07-30T07:15:08.032Z,77.90
2023-07-30T07:18:11.321Z,77.90
2023-07-30T07:21:13.639Z,77.90
2023-07-30T07:24:16.511Z,77.80
2023-07-30T07:27:18.973Z,77.90
2023-07-30T07:30:21.369Z,77.90
2023-07-30T07:33:23.946Z,78.00
2023-07-30T07:36:26.259Z,78.10
2023-07-30T07:39:28.614Z,77.90
2023-07-30T07:42:32.035Z,77.90
2023-07-30T07:45:34.474Z,77.90
2023-07-30T07:48:36.819Z,77.90
2023-07-30T07:51:39.337Z,77.80
2023-07-30T07:54:43.363Z,77.90
2023-07-30T07:57:45.685Z,77.90
2023-07-30T08:00:48.009Z,77.90
2023-07-30T08:03:50.442Z,77.90
2023-07-30T08:06:52.800Z,77.90
2023-07-30T08:09:56.121Z,77.80
2023-07-30T08:12:58.564Z,77.90
2023-07-30T08:16:00.944Z,77.90
2023-07-30T08:19:03.827Z,77.70
2023-07-30T08:22:06.247Z,77.80
2023-07-30T08:25:08.795Z,77.80
2023-07-30T08:28:11.300Z,77.80
2023-07-30T08:31:13.735Z,77.80
2023-07-30T08:34:16.084Z,77.70
2023-07-30T08:37:18.463Z,77.70
2023-07-30T08:40:24.800Z,77.70
2023-07-30T08:43:27.623Z,77.70
2023-07-30T08:46:29.941Z,77.70
2023-07-30T08:49:34.508Z,77.70
2023-07-30T08:52:37.468Z,77.60
2023-07-30T08:55:42.052Z,77.60
2023-07-30T08:58:46.217Z,77.60
2023-07-30T09:01:52.094Z,77.50
2023-07-30T09:04:58.082Z,77.50
2023-07-30T09:08:00.531Z,77.40
2023-07-30T09:11:12.858Z,77.40
2023-07-30T09:14:15.190Z,77.30
2023-07-30T09:17:20.831Z,77.30
2023-07-30T09:20:23.238Z,77.30
2023-07-30T09:23:25.508Z,77.30
2023-07-30T09:26:27.891Z,77.20
2023-07-30T09:29:30.358Z,77.10
2023-07-30T09:32:34.453Z,77.10
2023-07-30T09:35:36.809Z,77.10
2023-07-30T09:38:41.342Z,77.00
2023-07-30T09:41:44.121Z,76.90
2023-07-30T09:44:48.908Z,76.90
2023-07-30T09:47:52.477Z,76.90
2023-07-30T09:50:56.133Z,76.90
2023-07-30T09:53:58.583Z,76.80
2023-07-30T09:57:01.041Z,76.80
2023-07-30T10:00:05.109Z,76.90
2023-07-30T10:03:09.168Z,76.90
2023-07-30T10:06:13.947Z,76.80
2023-07-30T10:09:18.623Z,76.70
2023-07-30T10:12:28.738Z,76.70
2023-07-30T10:15:31.213Z,76.70
2023-07-30T10:18:41.037Z,76.70
2023-07-30T10:21:44.041Z,76.70
2023-07-30T10:25:03.542Z,76.70
2023-07-30T10:28:06.490Z,76.70
2023-07-30T10:31:09.913Z,76.70
2023-07-30T10:34:12.674Z,76.70
2023-07-30T10:37:22.570Z,76.60
2023-07-30T10:40:24.952Z,76.60
2023-07-30T10:43:57.332Z,76.70
2023-07-30T10:47:01.457Z,76.60
2023-07-30T10:50:04.285Z,76.50
2023-07-30T10:53:09.630Z,77.00
2023-07-30T10:56:18.587Z,76.80
2023-07-30T10:59:21.036Z,76.40
2023-07-30T11:02:24.006Z,76.00
2023-07-30T11:05:26.809Z,75.90
2023-07-30T11:08:39.268Z,76.60
2023-07-30T11:11:43.894Z,75.50
2023-07-30T11:14:46.170Z,75.20
2023-07-30T11:17:48.784Z,75.00
2023-07-30T11:20:51.755Z,74.60
2023-07-30T11:23:54.138Z,74.90
2023-07-30T11:27:00.704Z,74.60
2023-07-30T11:30:04.102Z,74.80
2023-07-30T11:33:06.659Z,74.60
2023-07-30T11:36:11.721Z,74.80
2023-07-30T11:39:14.887Z,74.70
2023-07-30T11:42:17.411Z,74.70
2023-07-30T11:45:24.616Z,74.50
2023-07-30T11:48:27.017Z,74.40
2023-07-30T11:51:30.381Z,74.20
2023-07-30T11:54:34.143Z,74.40
2023-07-30T11:57:37.744Z,74.40
2023-07-30T12:00:44.485Z,74.60
2023-07-30T12:03:47.427Z,74.80
2023-07-30T12:06:51.801Z,74.50
2023-07-30T12:09:54.125Z,74.40
2023-07-30T12:12:56.712Z,74.20
2023-07-30T12:16:00.060Z,74.00
2023-07-30T12:19:02.687Z,73.90
2023-07-30T12:22:05.205Z,73.80
2023-07-30T12:25:09.342Z,73.70
2023-07-30T12:28:11.678Z,74.00
2023-07-30T12:31:14.032Z,74.30
2023-07-30T12:34:16.801Z,74.40
2023-07-30T12:37:19.273Z,74.20
2023-07-30T12:40:21.693Z,74.10
2023-07-30T12:43:24.126Z,74.00
2023-07-30T12:46:31.451Z,73.70
2023-07-30T12:49:33.844Z,73.70
2023-07-30T12:52:36.429Z,73.30
2023-07-30T12:55:40.186Z,73.30
2023-07-30T12:58:42.803Z,73.60
2023-07-30T13:01:47.951Z,73.50
2023-07-30T13:04:51.029Z,73.30
2023-07-30T13:07:53.356Z,73.30
2023-07-30T13:10:55.662Z,73.10
2023-07-30T13:13:57.879Z,72.90
2023-07-30T13:17:00.193Z,73.40
2023-07-30T13:20:02.804Z,73.50
2023-07-30T13:23:05.240Z,73.30
2023-07-30T13:26:09.897Z,73.30
2023-07-30T13:29:12.196Z,72.90
2023-07-30T13:32:14.570Z,72.60
2023-07-30T13:35:16.949Z,72.60
2023-07-30T13:38:19.289Z,72.90
2023-07-30T13:41:21.972Z,73.70
2023-07-30T13:44:24.434Z,72.80
2023-07-30T13:47:26.752Z,72.40
2023-07-30T13:50:29.532Z,72.30
2023-07-30T13:53:31.892Z,71.70
2023-07-30T13:56:34.187Z,71.90
2023-07-30T13:59:36.432Z,71.70
2023-07-30T14:02:38.838Z,71.70
2023-07-30T14:05:41.233Z,71.30
2023-07-30T14:08:43.589Z,71.20
2023-07-30T14:11:47.939Z,72.30
2023-07-30T14:14:50.330Z,72.00
2023-07-30T14:17:53.466Z,72.30
2023-07-30T14:20:55.813Z,72.20
2023-07-30T14:23:58.148Z,72.20
2023-07-30T14:27:00.477Z,72.10
2023-07-30T14:30:02.887Z,72.00
2023-07-30T14:33:07.139Z,72.10
2023-07-30T14:36:12.294Z,72.00
2023-07-30T14:39:14.624Z,72.00
2023-07-30T14:42:17.441Z,72.20
2023-07-30T14:45:19.935Z,72.20
2023-07-30T14:48:23.520Z,72.20
2023-07-30T14:51:25.898Z,72.20
2023-07-30T14:54:28.209Z,72.20
2023-07-30T14:57:31.723Z,72.20
2023-07-30T15:00:34.136Z,72.20
2023-07-30T15:03:36.581Z,72.40
2023-07-30T15:06:39.244Z,72.30
2023-07-30T15:09:42.036Z,72.40
2023-07-30T15:12:45.148Z,72.40
2023-07-30T15:15:47.794Z,72.50
2023-07-30T15:18:50.347Z,72.40
2023-07-30T15:21:53.531Z,72.40
2023-07-30T15:24:56.226Z,72.40
2023-07-30T15:27:59.486Z,72.40
2023-07-30T15:31:01.872Z,72.60
2023-07-30T15:34:04.767Z,72.50
2023-07-30T15:37:07.228Z,72.50
2023-07-30T15:40:09.957Z,72.60
2023-07-30T15:43:13.953Z,72.50
2023-07-30T15:46:21.433Z,72.50
2023-07-30T15:49:24.066Z,72.50
2023-07-30T15:52:26.378Z,72.50
2023-07-30T15:55:28.981Z,72.50
2023-07-30T15:58:31.971Z,72.50
2023-07-30T16:01:34.253Z,72.50
2023-07-30T16:04:36.623Z,72.50
2023-07-30T16:07:39.256Z,72.50
2023-07-30T16:10:41.747Z,72.50
2023-07-30T16:13:44.045Z,72.40
2023-07-30T16:16:46.432Z,72.40
2023-07-30T16:19:49.049Z,72.50
2023-07-30T16:22:51.485Z,72.50
2023-07-30T16:25:53.866Z,72.40
2023-07-30T16:28:56.179Z,72.50
2023-07-30T16:31:58.571Z,72.60
2023-07-30T16:35:01.002Z,72.60
2023-07-30T16:38:05.127Z,72.60
2023-07-30T16:41:07.592Z,72.70
2023-07-30T16:44:09.908Z,72.70
2023-07-30T16:47:12.516Z,72.70
2023-07-30T16:50:15.163Z,72.70
2023-07-30T16:53:17.466Z,72.80
2023-07-30T16:56:19.839Z,72.80
2023-07-30T16:59:22.142Z,72.90
2023-07-30T17:02:24.520Z,72.80
2023-07-30T17:05:27.325Z,72.80
2023-07-30T17:08:30.174Z,72.80
2023-07-30T17:11:32.443Z,72.90
2023-07-30T17:14:34.836Z,72.80
2023-07-30T17:17:37.612Z,72.90
2023-07-30T17:20:39.953Z,72.90
2023-07-30T17:23:42.226Z,72.90
2023-07-30T17:26:44.709Z,73.00
2023-07-30T17:29:47.136Z,73.00
2023-07-30T17:32:49.858Z,73.10
2023-07-30T17:35:52.360Z,73.10
2023-07-30T17:38:54.968Z,73.10
2023-07-30T17:41:57.306Z,73.10
2023-07-30T17:44:59.649Z,73.20
2023-07-30T17:48:02.062Z,73.30
2023-07-30T17:51:04.404Z,73.30
2023-07-30T17:54:06.945Z,73.30
2023-07-30T17:57:09.536Z,73.30
2023-07-30T18:00:12.768Z,73.40
2023-07-30T18:03:15.650Z,73.40
2023-07-30T18:06:18.113Z,73.50
2023-07-30T18:09:20.550Z,73.50
2023-07-30T18:12:23.293Z,73.50
2023-07-30T18:15:25.652Z,73.60
2023-07-30T18:18:28.008Z,73.70
2023-07-30T18:21:30.315Z,73.70
2023-07-30T18:24:32.651Z,73.90
2023-07-30T18:27:34.989Z,74.00
2023-07-30T18:30:39.089Z,74.00
2023-07-30T18:33:41.532Z,74.70
2023-07-30T18:36:43.927Z,74.00
2023-07-30T18:39:46.392Z,73.90
2023-07-30T18:42:51.766Z,73.90
2023-07-30T18:45:54.040Z,74.00
2023-07-30T18:48:56.689Z,74.00
2023-07-30T18:51:59.059Z,74.00
2023-07-30T18:55:01.675Z,74.00
2023-07-30T18:58:04.327Z,73.90
2023-07-30T19:01:06.704Z,73.90
2023-07-30T19:04:09.492Z,74.10
2023-07-30T19:07:12.792Z,74.00
2023-07-30T19:10:15.345Z,74.00
2023-07-30T19:13:17.883Z,74.10
2023-07-30T19:16:20.293Z,74.00
2023-07-30T19:19:22.742Z,73.90
2023-07-30T19:22:25.057Z,74.00
2023-07-30T19:25:27.422Z,73.90
2023-07-30T19:28:29.767Z,74.10
2023-07-30T19:31:32.785Z,74.10
2023-07-30T19:34:35.978Z,73.90
2023-07-30T19:37:38.309Z,74.00
2023-07-30T19:40:40.660Z,73.90
2023-07-30T19:43:42.936Z,74.00
2023-07-30T19:46:45.606Z,74.00
2023-07-30T19:49:48.439Z,73.90
2023-07-30T19:52:51.276Z,74.00
2023-07-30T19:55:53.540Z,74.00
2023-07-30T19:58:55.897Z,73.90
2023-07-30T20:01:59.904Z,74.00
2023-07-30T20:05:02.878Z,73.90
2023-07-30T20:08:05.294Z,74.00
2023-07-30T20:11:07.827Z,73.90
2023-07-30T20:14:10.277Z,73.90
2023-07-30T20:17:12.911Z,73.90
2023-07-30T20:20:15.342Z,73.90
2023-07-30T20:23:17.744Z,73.90
2023-07-30T20:26:20.426Z,73.90
2023-07-30T20:29:22.795Z,73.90
2023-07-30T20:32:27.349Z,73.90
2023-07-30T20:35:29.811Z,73.90
2023-07-30T20:38:32.120Z,73.90
2023-07-30T20:41:34.392Z,73.90
2023-07-30T20:44:36.691Z,73.90
2023-07-30T20:47:39.059Z,73.90
2023-07-30T20:50:41.471Z,73.80
2023-07-30T20:53:43.737Z,73.90
2023-07-30T20:56:46.242Z,73.90
2023-07-30T20:59:49.020Z,74.00
2023-07-30T21:02:51.531Z,74.00
2023-07-30T21:05:54.024Z,73.90
2023-07-30T21:08:56.292Z,74.10
2023-07-30T21:11:58.584Z,74.10
2023-07-30T21:15:06.040Z,74.10
2023-07-30T21:18:08.995Z,74.20
2023-07-30T21:21:11.322Z,74.20
2023-07-30T21:24:13.704Z,74.20
2023-07-30T21:27:16.135Z,74.30
2023-07-30T21:30:19.541Z,74.30
2023-07-30T21:33:21.854Z,74.30
2023-07-30T21:36:24.223Z,74.40
2023-07-30T21:39:26.563Z,74.30
2023-07-30T21:42:30.125Z,74.60
2023-07-30T21:45:32.516Z,74.50
2023-07-30T21:48:35.019Z,74.60
2023-07-30T21:51:37.448Z,74.60
2023-07-30T21:54:39.685Z,74.60
2023-07-30T21:57:42.035Z,74.80
2023-07-30T22:00:58.562Z,75.40
2023-07-30T22:04:01.405Z,74.70
2023-07-30T22:07:03.894Z,74.80
2023-07-30T22:10:06.904Z,74.80
2023-07-30T22:13:10.115Z,74.80
2023-07-30T22:16:12.623Z,74.90
2023-07-30T22:19:14.972Z,74.90
2023-07-30T22:22:17.322Z,74.80
2023-07-30T22:25:19.784Z,74.80
2023-07-30T22:28:22.116Z,75.00
2023-07-30T22:31:24.432Z,75.10
2023-07-30T22:34:27.384Z,75.00
2023-07-30T22:37:29.706Z,75.00
2023-07-30T22:40:32.008Z,75.10
2023-07-30T22:43:34.242Z,75.10
2023-07-30T22:46:36.737Z,75.20
2023-07-30T22:49:39.199Z,75.20
2023-07-30T22:52:41.533Z,75.20
2023-07-30T22:55:43.895Z,75.20
2023-07-30T22:58:47.302Z,75.20
2023-07-30T23:01:49.754Z,75.90
2023-07-30T23:04:52.135Z,75.20
2023-07-30T23:07:54.466Z,75.20
2023-07-30T23:10:56.793Z,75.20
2023-07-30T23:13:59.231Z,75.30
2023-07-30T23:17:01.643Z,75.30
2023-07-30T23:20:04.373Z,75.30
2023-07-30T23:23:07.364Z,75.40
2023-07-30T23:26:09.687Z,76.10
2023-07-30T23:29:12.079Z,75.40
2023-07-30T23:32:14.675Z,75.40
2023-07-30T23:35:17.025Z,75.40
2023-07-30T23:38:19.333Z,75.40
2023-07-30T23:41:21.711Z,75.50
2023-07-30T23:44:24.074Z,75.50
2023-07-30T23:47:26.601Z,75.50
2023-07-30T23:50:29.120Z,75.50
2023-07-30T23:53:31.537Z,75.50
2023-07-30T23:56:33.927Z,75.60
2023-07-30T23:59:36.248Z,75.40
